createdAt,value
2022-08-23T00:02:28.540Z,99949.27
2022-08-23T00:05:08.144Z,99947.35
2022-08-23T00:07:42.080Z,99950.60
2022-08-23T00:10:15.705Z,99953.88
2022-08-23T00:12:46.473Z,99952.48
2022-08-23T00:15:18.927Z,99955.25
2022-08-23T00:17:47.985Z,99954.22
2022-08-23T00:20:20.301Z,99953.52
2022-08-23T00:22:48.780Z,99951.31
2022-08-23T00:25:18.391Z,99951.27
2022-08-23T00:27:46.795Z,99948.56
2022-08-23T00:30:17.807Z,99946.84
2022-08-23T00:32:46.665Z,99944.55
2022-08-23T00:35:26.455Z,99939.67
2022-08-23T01:18:27.206Z,99968.37
2022-08-23T01:21:17.403Z,99972.05
2022-08-23T01:23:53.799Z,99981.88
2022-08-23T01:26:25.186Z,99978.96
2022-08-23T01:28:55.124Z,99980.70
2022-08-23T01:31:24.368Z,99974.86
2022-08-23T01:33:59.041Z,99971.34
2022-08-23T01:36:29.013Z,99967.56
2022-08-23T01:39:06.171Z,99964.06
2022-08-23T01:41:34.813Z,99960.13
2022-08-23T01:44:09.155Z,99956.55
2022-08-23T01:46:37.723Z,99952.68
2022-08-23T01:49:08.353Z,99956.13
2022-08-23T01:51:37.611Z,99960.72
2022-08-23T01:54:06.401Z,99960.95
2022-08-23T01:56:38.835Z,99965.05
2022-08-23T01:59:10.636Z,99971.05
2022-08-23T02:01:39.301Z,99979.13
2022-08-23T02:04:07.624Z,99983.35
2022-08-23T02:06:36.020Z,99983.92
2022-08-23T02:09:17.156Z,99986.55
2022-08-23T02:11:47.240Z,99986.89
2022-08-23T02:14:19.991Z,99993.76
2022-08-23T02:17:03.767Z,99998.50
2022-08-23T02:19:35.541Z,99994.81
2022-08-23T02:22:07.964Z,99996.91
2022-08-23T02:24:43.119Z,99990.08
2022-08-23T02:43:04.825Z,99982.41
2022-08-23T02:45:34.823Z,99981.02
2022-08-23T03:08:36.787Z,99979.94
2022-08-23T03:11:12.907Z,99983.79
2022-08-23T03:13:43.394Z,99982.38
2022-08-23T03:16:12.806Z,99981.05
2022-08-23T03:18:41.385Z,99980.36
2022-08-23T03:21:10.865Z,99975.14
2022-08-23T03:23:40.608Z,99972.23
2022-08-23T03:26:11.912Z,99971.92
2022-08-23T03:28:42.736Z,99973.92
2022-08-23T03:31:12.469Z,99977.48
2022-08-23T03:34:15.085Z,99978.73
2022-08-23T03:36:43.499Z,99978.34
2022-08-23T03:39:11.926Z,99974.77
2022-08-23T03:41:40.371Z,99972.08
2022-08-23T03:44:08.708Z,99973.12
2022-08-23T03:46:37.512Z,99975.55
2022-08-23T03:49:06.273Z,99975.05
2022-08-23T03:51:35.088Z,99977.07
2022-08-23T03:54:04.182Z,99975.46
2022-08-23T03:56:40.136Z,99975.30
2022-08-23T03:59:11.675Z,99974.88
2022-08-23T04:01:40.036Z,99974.13
2022-08-23T04:04:08.341Z,99968.23
2022-08-23T04:06:36.780Z,99963.15
2022-08-23T04:09:05.251Z,99968.10
2022-08-23T04:11:33.595Z,99966.91
2022-08-23T04:14:02.030Z,99969.66
2022-08-23T04:16:33.454Z,99970.10
2022-08-23T04:19:01.797Z,99969.30
2022-08-23T04:21:31.253Z,99969.50
2022-08-23T04:23:59.699Z,99974.83
2022-08-23T04:26:30.252Z,99979.94
2022-08-23T04:28:58.782Z,99989.72
2022-08-23T04:31:28.304Z,99994.64
2022-08-23T04:34:03.944Z,100000.28
2022-08-23T04:36:41.159Z,100002.00
2022-08-23T04:39:14.350Z,100001.96
2022-08-23T04:42:22.806Z,100012.44
2022-08-23T04:44:51.458Z,100017.00
2022-08-23T04:47:20.603Z,100021.34
2022-08-23T04:49:49.029Z,100022.10
2022-08-23T04:52:19.364Z,100021.06
2022-08-23T04:54:48.119Z,100025.86
2022-08-23T04:57:16.878Z,100028.27
2022-08-23T04:59:45.321Z,100029.94
2022-08-23T05:02:14.511Z,100029.86
2022-08-23T05:04:42.880Z,100032.41
2022-08-23T05:07:11.430Z,100032.58
2022-08-23T05:09:39.776Z,100028.92
2022-08-23T05:12:09.727Z,100033.09
2022-08-23T05:14:38.185Z,100030.10
2022-08-23T05:17:07.083Z,100033.08
2022-08-23T05:19:37.492Z,100032.97
2022-08-23T05:22:12.704Z,100034.88
2022-08-23T05:24:41.304Z,100037.82
2022-08-23T05:27:13.497Z,100041.28
2022-08-23T05:29:42.284Z,100044.59
2022-08-23T05:32:10.840Z,100048.82
2022-08-23T05:34:39.336Z,100047.20
2022-08-23T05:37:07.705Z,100047.79
2022-08-23T05:39:37.464Z,100043.01
2022-08-23T05:42:12.798Z,100042.07
2022-08-23T05:44:41.742Z,100043.42
2022-08-23T05:47:16.100Z,100045.45
2022-08-23T05:49:44.586Z,100052.40
2022-08-23T05:52:14.172Z,100054.63
2022-08-23T05:54:42.708Z,100057.38
2022-08-23T05:57:11.498Z,100053.30
2022-08-23T05:59:42.023Z,100051.70
2022-08-23T06:02:10.655Z,100055.59
2022-08-23T06:04:39.289Z,100053.46
2022-08-23T06:07:10.448Z,100054.77
2022-08-23T06:09:39.131Z,100056.10
2022-08-23T06:12:07.753Z,100060.61
2022-08-23T06:14:36.295Z,100062.77
2022-08-23T06:17:05.663Z,100064.57
2022-08-23T06:19:34.132Z,100065.14
2022-08-23T06:22:03.455Z,100069.44
2022-08-23T06:24:31.853Z,100072.55
2022-08-23T06:27:00.225Z,100075.92
2022-08-23T06:29:29.056Z,100083.88
2022-08-23T06:31:57.404Z,100089.05
2022-08-23T06:34:35.573Z,100091.95
2022-08-23T06:37:09.002Z,100097.53
2022-08-23T06:39:38.763Z,100099.36
2022-08-23T06:42:38.378Z,100100.06
2022-08-23T06:45:06.493Z,100094.77
2022-08-23T06:47:34.846Z,100093.72
2022-08-23T06:50:04.678Z,100089.31
2022-08-23T06:52:33.068Z,100090.77
2022-08-23T06:55:02.344Z,100094.69
2022-08-23T06:57:32.482Z,100096.26
2022-08-23T07:00:01.520Z,100093.58
2022-08-23T07:02:30.436Z,100096.16
2022-08-23T07:04:59.274Z,100093.95
2022-08-23T07:07:39.789Z,100091.91
2022-08-23T07:10:14.404Z,100096.82
2022-08-23T07:12:43.178Z,100097.63
2022-08-23T07:15:12.961Z,100096.48
2022-08-23T07:17:41.388Z,100104.81
2022-08-23T07:20:10.053Z,100101.58
2022-08-23T07:22:38.606Z,100104.85
2022-08-23T07:25:07.315Z,100099.99
2022-08-23T07:27:35.728Z,100098.91
2022-08-23T07:30:06.297Z,100104.29
2022-08-23T07:32:34.665Z,100109.89
2022-08-23T07:35:02.985Z,100115.19
2022-08-23T07:37:31.358Z,100112.22
2022-08-23T07:39:59.827Z,100109.86
2022-08-23T07:42:28.247Z,100112.23
2022-08-23T07:44:57.001Z,100118.36
2022-08-23T07:47:25.566Z,100114.75
2022-08-23T07:49:54.107Z,100115.24
2022-08-23T07:52:22.565Z,100111.25
2022-08-23T07:54:50.930Z,100114.63
2022-08-23T07:57:20.119Z,100118.29
2022-08-23T07:59:49.045Z,100121.68
2022-08-23T08:02:17.463Z,100125.61
2022-08-23T08:04:46.011Z,100119.90
2022-08-23T08:07:21.725Z,100114.48
2022-08-23T08:09:50.443Z,100115.08
2022-08-23T08:12:19.302Z,100119.67
2022-08-23T08:14:48.430Z,100124.95
2022-08-23T08:17:18.438Z,100130.78
2022-08-23T08:19:48.143Z,100135.09
2022-08-23T08:22:16.475Z,100134.58
2022-08-23T08:24:45.016Z,100134.04
2022-08-23T08:27:13.690Z,100132.10
2022-08-23T08:29:43.937Z,100133.42
2022-08-23T08:32:13.955Z,100134.02
2022-08-23T08:34:42.941Z,100142.65
2022-08-23T08:37:11.698Z,100141.59
2022-08-23T08:39:45.712Z,100145.27
2022-08-23T08:42:52.444Z,100150.24
2022-08-23T08:45:31.970Z,100156.84
2022-08-23T08:48:13.518Z,100155.60
2022-08-23T08:50:51.205Z,100158.91
2022-08-23T08:53:45.150Z,100152.80
2022-08-23T08:56:32.240Z,100154.45
2022-08-23T08:59:16.271Z,100158.76
2022-08-23T09:01:44.751Z,100165.31
2022-08-23T09:04:13.598Z,100172.63
2022-08-23T09:07:09.365Z,100179.81
2022-08-23T09:10:06.741Z,100175.89
2022-08-23T09:12:54.660Z,100176.56
2022-08-23T09:16:28.852Z,100183.77
2022-08-23T09:19:00.907Z,100182.42
2022-08-23T09:21:43.548Z,100180.27
2022-08-23T09:24:13.508Z,100182.39
2022-08-23T09:26:43.568Z,100183.00
2022-08-23T09:29:25.737Z,100178.86
2022-08-23T09:32:04.045Z,100179.05
2022-08-23T09:34:32.284Z,100183.95
2022-08-23T09:37:12.960Z,100180.33
2022-08-23T09:39:52.851Z,100179.64
2022-08-23T09:42:40.431Z,100177.46
2022-08-23T09:45:35.703Z,100174.91
2022-08-23T09:48:07.399Z,100176.18
2022-08-23T09:50:47.987Z,100175.80
2022-08-23T09:53:26.887Z,100178.02
2022-08-23T09:55:58.885Z,100186.55
2022-08-23T09:58:50.582Z,100185.73
2022-08-23T10:01:38.858Z,100184.95
2022-08-23T10:04:16.830Z,100183.70
2022-08-23T10:06:46.394Z,100183.58
2022-08-23T10:09:33.635Z,100186.55
2022-08-23T10:12:02.906Z,100184.66
2022-08-23T10:14:33.948Z,100186.30
2022-08-23T10:17:20.955Z,100182.91
2022-08-23T10:20:04.967Z,100186.61
2022-08-23T10:23:12.285Z,100182.15
2022-08-23T10:25:48.599Z,100181.13
2022-08-23T10:29:03.126Z,100183.76
2022-08-23T10:31:46.224Z,100187.98
2022-08-23T10:35:00.999Z,100189.20
2022-08-23T10:37:43.428Z,100198.72
2022-08-23T10:40:37.309Z,100200.04
2022-08-23T10:43:26.340Z,100199.20
2022-08-23T10:46:00.522Z,100203.96
2022-08-23T10:48:42.094Z,100205.78
2022-08-23T10:51:31.904Z,100210.21
2022-08-23T10:54:36.778Z,100203.30
2022-08-23T10:57:06.385Z,100201.70
2022-08-23T10:59:36.954Z,100201.61
2022-08-23T11:02:26.043Z,100207.85
2022-08-23T11:05:06.729Z,100213.44
2022-08-23T11:07:43.022Z,100216.48
2022-08-23T11:10:25.831Z,100217.80
2022-08-23T11:13:12.711Z,100219.15
2022-08-23T11:15:59.413Z,100218.64
2022-08-23T11:18:33.676Z,100218.84
2022-08-23T11:21:18.102Z,100219.31
2022-08-23T11:23:58.301Z,100215.04
2022-08-23T11:26:26.529Z,100209.05
2022-08-23T11:32:13.815Z,100210.12
2022-08-23T11:34:50.294Z,100213.31
2022-08-23T11:37:24.494Z,100207.85
2022-08-23T11:39:59.133Z,100207.92
2022-08-23T11:42:32.196Z,100210.39
2022-08-23T11:45:01.332Z,100212.29
2022-08-23T11:47:44.583Z,100208.27
2022-08-23T11:50:19.307Z,100214.09
2022-08-23T11:53:07.126Z,100208.99
2022-08-23T11:56:13.650Z,100213.34
2022-08-23T11:58:53.733Z,100213.83
2022-08-23T12:01:37.287Z,100217.77
2022-08-23T12:04:28.047Z,100215.90
2022-08-23T12:07:02.995Z,100221.34
2022-08-23T12:12:38.755Z,100222.33
2022-08-23T12:15:12.371Z,100218.14
2022-08-23T12:17:43.527Z,100216.16
2022-08-23T12:20:20.685Z,100217.01
2022-08-23T12:23:07.849Z,100215.80
2022-08-23T12:25:37.526Z,100221.92
2022-08-23T12:28:48.128Z,100219.02
2022-08-23T12:31:58.159Z,100222.41
2022-08-23T12:34:53.603Z,100219.50
2022-08-23T12:37:43.157Z,100218.22
2022-08-23T12:40:39.785Z,100216.64
2022-08-23T12:43:28.797Z,100217.25
2022-08-23T12:46:02.021Z,100216.92
2022-08-23T12:48:46.261Z,100215.09
2022-08-23T12:51:17.175Z,100213.46
2022-08-23T12:53:49.032Z,100214.10
2022-08-23T12:56:31.708Z,100216.06
2022-08-23T12:59:07.562Z,100219.45
2022-08-23T13:01:39.382Z,100216.30
2022-08-23T13:04:14.760Z,100217.54
2022-08-23T13:07:04.956Z,100220.25
2022-08-23T13:09:38.324Z,100221.45
2022-08-23T13:12:11.113Z,100222.38
2022-08-23T13:14:52.966Z,100223.72
2022-08-23T13:17:27.602Z,100226.36
2022-08-23T13:20:03.233Z,100226.79
2022-08-23T13:22:34.088Z,100230.52
2022-08-23T13:28:01.586Z,100228.39
2022-08-23T13:30:41.629Z,100229.59
2022-08-23T13:33:10.627Z,100229.80
2022-08-23T13:35:47.005Z,100228.60
2022-08-23T13:38:22.157Z,100226.25
2022-08-23T13:41:11.067Z,100227.52
2022-08-23T13:43:51.408Z,100231.20
2022-08-23T13:46:29.541Z,100230.66
2022-08-23T13:49:20.102Z,100230.02
2022-08-23T13:52:18.664Z,100230.95
2022-08-23T13:54:53.120Z,100233.83
2022-08-23T13:57:22.573Z,100232.75
2022-08-23T14:00:01.501Z,100231.84
2022-08-23T14:02:30.678Z,100230.77
2022-08-23T14:05:01.783Z,100231.30
2022-08-23T14:10:33.481Z,100241.75
2022-08-23T14:13:02.651Z,100241.06
2022-08-23T14:18:33.469Z,100236.80
2022-08-23T14:21:01.823Z,100232.05
2022-08-23T14:23:30.541Z,100232.39
2022-08-23T14:25:59.470Z,100235.35
2022-08-23T14:28:30.041Z,100236.02
2022-08-23T14:30:59.024Z,100236.83
2022-08-23T14:33:27.536Z,100232.98
2022-08-23T14:35:57.252Z,100233.70
2022-08-23T14:38:25.743Z,100234.38
2022-08-23T14:41:03.355Z,100232.52
2022-08-23T14:43:31.894Z,100231.40
2022-08-23T14:46:00.967Z,100232.67
2022-08-23T14:48:29.609Z,100230.66
2022-08-23T14:50:58.438Z,100220.47
2022-08-23T14:53:31.964Z,100227.37
2022-08-23T14:56:20.537Z,100223.98
2022-08-23T14:58:50.077Z,100225.63
2022-08-23T15:01:20.382Z,100230.60
2022-08-23T15:03:50.044Z,100227.04
2022-08-23T15:06:20.837Z,100230.56
2022-08-23T15:08:51.803Z,100232.55
2022-08-23T15:14:09.376Z,100236.16
2022-08-23T15:16:37.882Z,100237.32
2022-08-23T15:19:06.727Z,100240.30
2022-08-23T15:21:35.932Z,100240.73
2022-08-23T15:24:05.793Z,100246.30
2022-08-23T15:26:36.219Z,100244.96
2022-08-23T15:29:19.192Z,100248.41
2022-08-23T15:32:52.641Z,100246.79
2022-08-23T15:35:40.469Z,100247.46
2022-08-23T15:38:17.900Z,100247.52
2022-08-23T15:41:28.450Z,100246.92
2022-08-23T15:44:08.885Z,100244.42
2022-08-23T15:46:39.763Z,100247.21
2022-08-23T15:49:19.344Z,100247.37
2022-08-23T15:51:49.325Z,100248.60
2022-08-23T15:54:18.293Z,100254.67
2022-08-23T15:57:17.747Z,100254.02
2022-08-23T15:59:47.659Z,100257.54
2022-08-23T16:02:27.606Z,100260.02
2022-08-23T16:04:57.441Z,100260.57
2022-08-23T16:07:34.693Z,100261.71
2022-08-23T16:10:23.839Z,100262.30
2022-08-23T16:12:53.169Z,100268.95
2022-08-23T16:15:21.718Z,100270.36
2022-08-23T16:17:50.288Z,100275.59
2022-08-23T16:20:18.690Z,100275.09
2022-08-23T16:22:47.106Z,100276.04
2022-08-23T16:25:48.655Z,100278.94
2022-08-23T16:28:47.256Z,100282.53
2022-08-23T16:34:40.014Z,100289.90
2022-08-23T16:37:28.652Z,100288.17
2022-08-23T16:40:28.781Z,100287.46
2022-08-23T16:43:03.171Z,100287.46
2022-08-23T16:45:41.023Z,100287.44
2022-08-23T16:49:26.172Z,100284.38
2022-08-23T16:52:34.439Z,100282.30
2022-08-23T16:55:29.119Z,100282.58
2022-08-23T17:05:01.855Z,100289.70
2022-08-23T17:07:35.963Z,100294.92
2022-08-23T17:10:13.106Z,100297.54
2022-08-23T17:16:22.588Z,100306.55
2022-08-23T17:18:57.314Z,100312.34
2022-08-23T17:25:13.194Z,100324.05
2022-08-23T17:27:53.768Z,100328.96
2022-08-23T17:30:29.957Z,100332.99
2022-08-23T17:33:03.730Z,100332.71
2022-08-23T17:35:35.710Z,100335.64
2022-08-23T17:38:15.691Z,100337.30
2022-08-23T17:41:12.415Z,100335.73
2022-08-23T17:44:05.441Z,100334.83
2022-08-23T17:46:57.014Z,100338.34
2022-08-23T17:50:22.373Z,100342.33
2022-08-23T17:52:58.875Z,100342.59
2022-08-23T17:55:36.131Z,100348.16
2022-08-23T17:58:14.312Z,100348.11
2022-08-23T18:01:32.196Z,100347.83
2022-08-23T18:04:13.132Z,100347.81
2022-08-23T18:06:46.836Z,100350.02
2022-08-23T18:09:17.141Z,100349.33
2022-08-23T18:12:06.901Z,100348.66
2022-08-23T18:14:41.735Z,100352.63
2022-08-23T18:17:59.528Z,100357.19
2022-08-23T18:20:48.097Z,100358.30
2022-08-23T18:23:17.935Z,100362.69
2022-08-23T18:25:46.280Z,100365.40
2022-08-23T18:28:18.080Z,100364.92
2022-08-23T18:30:54.768Z,100369.31
2022-08-23T18:33:32.240Z,100372.05
2022-08-23T18:36:27.437Z,100378.67
2022-08-23T18:38:57.590Z,100378.73
2022-08-23T18:41:27.742Z,100375.52
2022-08-23T18:44:05.361Z,100382.79
2022-08-23T18:46:47.701Z,100380.84
2022-08-23T18:49:41.583Z,100384.31
2022-08-23T18:52:12.926Z,100385.75
2022-08-23T18:54:49.946Z,100385.05
2022-08-23T18:57:51.285Z,100388.79
2022-08-23T19:00:23.982Z,100392.02
2022-08-23T19:02:57.432Z,100396.38
2022-08-23T19:05:41.717Z,100402.17
2022-08-23T19:08:47.053Z,100403.80
2022-08-23T19:11:16.001Z,100406.65
2022-08-23T19:13:53.543Z,100408.85
2022-08-23T19:16:45.844Z,100410.71
2022-08-23T19:19:18.835Z,100409.73
2022-08-23T19:21:51.922Z,100411.39
2022-08-23T19:24:20.399Z,100409.63
2022-08-23T19:26:51.183Z,100409.19
2022-08-23T19:29:25.197Z,100409.29
2022-08-23T19:31:59.627Z,100405.90
2022-08-23T19:34:34.313Z,100409.90
2022-08-23T19:37:10.766Z,100411.68
2022-08-23T19:39:55.585Z,100419.14
2022-08-23T19:42:30.674Z,100421.67
2022-08-23T19:45:09.602Z,100426.14
2022-08-23T19:48:03.104Z,100425.02
2022-08-23T19:50:49.477Z,100424.20
2022-08-23T19:53:44.981Z,100423.77
2022-08-23T19:56:18.496Z,100421.42
2022-08-23T19:59:21.015Z,100420.80
2022-08-23T20:01:59.265Z,100421.92
2022-08-23T20:04:34.171Z,100421.42
2022-08-23T20:07:47.033Z,100421.45
2022-08-23T20:10:44.343Z,100417.05
2022-08-23T20:13:50.505Z,100418.45
2022-08-23T20:16:23.950Z,100419.53
2022-08-23T20:18:58.236Z,100425.13
2022-08-23T20:22:18.235Z,100427.16
2022-08-23T20:24:53.143Z,100427.40
2022-08-23T20:27:30.822Z,100433.61
2022-08-23T20:30:07.649Z,100430.80
2022-08-23T20:32:43.793Z,100428.14
2022-08-23T20:35:19.966Z,100427.90
2022-08-23T20:38:50.211Z,100431.19
2022-08-23T20:41:37.215Z,100432.18
2022-08-23T20:44:12.071Z,100431.66
2022-08-23T20:46:53.786Z,100423.48
2022-08-23T20:49:29.293Z,100426.46
2022-08-23T20:52:06.534Z,100427.33
2022-08-23T20:54:39.997Z,100432.74
2022-08-23T20:57:15.318Z,100433.27
2022-08-23T20:59:53.302Z,100431.45
2022-08-23T21:02:46.889Z,100423.80
2022-08-23T21:05:21.998Z,100417.98
2022-08-23T21:07:50.439Z,100420.71
2022-08-23T21:10:19.023Z,100421.73
2022-08-23T21:12:48.416Z,100423.83
2022-08-23T21:15:16.961Z,100423.27
2022-08-23T21:17:47.668Z,100426.09
2022-08-23T21:20:16.666Z,100425.30
2022-08-23T21:22:45.063Z,100426.86
2022-08-23T21:25:13.891Z,100422.84
2022-08-23T21:27:42.340Z,100422.67
2022-08-23T21:30:11.384Z,100420.71
2022-08-23T21:32:40.079Z,100409.52
2022-08-23T21:35:09.724Z,100406.60
2022-08-23T21:37:38.182Z,100402.01
2022-08-23T21:40:07.545Z,100400.45
2022-08-23T21:42:36.016Z,100399.42
2022-08-23T21:45:07.303Z,100395.40
2022-08-23T21:47:35.694Z,100397.67
2022-08-23T21:50:05.657Z,100391.95
2022-08-23T21:52:34.121Z,100392.39
2022-08-23T21:55:02.720Z,100393.52
2022-08-23T21:57:31.443Z,100394.65
2022-08-23T22:00:00.940Z,100391.86
2022-08-23T22:02:29.630Z,100384.89
2022-08-23T22:04:58.021Z,100385.83
2022-08-23T22:07:26.410Z,100384.80
2022-08-23T22:09:54.812Z,100380.15
2022-08-23T22:12:25.075Z,100383.41
2022-08-23T22:14:53.649Z,100387.76
2022-08-23T22:17:22.137Z,100390.33
2022-08-23T22:19:51.675Z,100391.52
2022-08-23T22:22:20.034Z,100391.48
2022-08-23T22:24:48.381Z,100390.23
2022-08-23T22:27:18.817Z,100391.63
2022-08-23T22:29:47.252Z,100391.42
2022-08-23T22:32:15.858Z,100391.15
2022-08-23T22:34:44.185Z,100388.55
2022-08-23T22:37:13.077Z,100383.59
2022-08-23T22:39:41.567Z,100387.82
2022-08-23T22:42:10.164Z,100391.95
2022-08-23T22:44:39.200Z,100395.73
2022-08-23T22:47:07.929Z,100398.52
2022-08-23T22:49:36.330Z,100397.19
2022-08-23T22:52:05.610Z,100398.55
2022-08-23T22:54:34.032Z,100400.84
2022-08-23T22:57:02.366Z,100406.15
2022-08-23T22:59:33.179Z,100409.66
2022-08-23T23:02:03.525Z,100408.41
2022-08-23T23:04:33.775Z,100410.34
2022-08-23T23:07:03.745Z,100410.20
2022-08-23T23:09:32.260Z,100410.00
2022-08-23T23:12:00.671Z,100409.27
2022-08-23T23:14:29.180Z,100407.23
2022-08-23T23:16:57.619Z,100413.27
2022-08-23T23:19:45.806Z,100410.16
2022-08-23T23:22:15.176Z,100417.63
2022-08-23T23:24:43.638Z,100425.96
2022-08-23T23:27:12.106Z,100425.32
2022-08-23T23:29:42.091Z,100431.23
2022-08-23T23:32:10.413Z,100435.69
2022-08-23T23:34:38.880Z,100433.29
2022-08-23T23:37:07.276Z,100434.92
2022-08-23T23:39:35.930Z,100436.57
2022-08-23T23:42:04.444Z,100439.89
2022-08-23T23:44:32.823Z,100437.84
2022-08-23T23:47:02.507Z,100439.23
2022-08-23T23:49:33.373Z,100440.45
2022-08-23T23:52:05.348Z,100437.55
2022-08-23T23:54:36.069Z,100430.67
2022-08-23T23:57:05.911Z,100429.58
2022-08-23T23:59:35.168Z,100428.18
